Time;durP1;ratioP1;P1;durP2;ratioP2;P2;SDS_P1;SDS_P2;PMS_P1;PMS_P2;Temp;Humidity;BMP_temperature;BMP_pressure;BME280_temperature;BME280_humidity;BME280_pressure;Samples;Min_cycle;Max_cycle;Signal;HPM_P1;HPM_P2
2022/08/27 00:01:10;;;;;;;46.30;35.47;;;19.50;99.90;;;;;;5063257;28;20730;-65
2022/08/27 00:03:36;;;;;;;46.40;35.47;;;19.40;99.90;;;;;;5051862;28;20245;-63
2022/08/27 00:06:02;;;;;;;42.23;32.60;;;19.40;99.90;;;;;;5065662;28;20261;-63
2022/08/27 00:08:29;;;;;;;36.43;29.27;;;19.40;99.90;;;;;;5060531;28;20226;-63
2022/08/27 00:10:56;;;;;;;41.40;29.33;;;19.30;99.90;;;;;;5051657;28;20167;-63
2022/08/27 00:13:21;;;;;;;32.87;26.43;;;19.30;99.90;;;;;;5060737;28;20205;-63
2022/08/27 00:15:47;;;;;;;37.87;27.47;;;19.30;99.90;;;;;;5071461;28;20202;-63
2022/08/27 00:18:13;;;;;;;40.73;25.90;;;19.20;99.90;;;;;;5063817;28;20198;-63
2022/08/27 00:20:38;;;;;;;40.53;28.87;;;19.20;99.90;;;;;;5054067;28;20574;-63
2022/08/27 00:23:04;;;;;;;41.13;29.40;;;19.10;99.90;;;;;;5071550;28;20206;-63
2022/08/27 00:25:30;;;;;;;36.67;27.20;;;19.00;99.90;;;;;;5069168;28;20274;-63
2022/08/27 00:27:55;;;;;;;38.70;26.23;;;19.00;99.90;;;;;;5051412;28;20221;-63
2022/08/27 00:30:22;;;;;;;35.03;26.10;;;18.90;99.90;;;;;;5051515;28;20171;-63
2022/08/27 00:32:48;;;;;;;37.27;26.43;;;18.90;99.90;;;;;;5070583;28;20182;-63
2022/08/27 00:35:14;;;;;;;39.00;27.57;;;18.90;99.90;;;;;;5067330;28;20190;-63
2022/08/27 00:37:40;;;;;;;35.33;26.83;;;18.90;99.90;;;;;;5050316;28;20181;-63
2022/08/27 00:40:09;;;;;;;36.30;26.10;;;18.90;99.90;;;;;;5053341;28;20178;-63
2022/08/27 00:42:35;;;;;;;38.97;24.13;;;18.90;99.90;;;;;;5071460;28;20275;-63
2022/08/27 00:45:01;;;;;;;35.63;25.13;;;18.80;99.90;;;;;;5070014;28;20674;-63
2022/08/27 00:47:30;;;;;;;39.87;26.93;;;18.80;99.90;;;;;;5051491;28;20190;-62
2022/08/27 00:50:01;;;;;;;35.03;25.23;;;18.80;99.90;;;;;;5051103;28;20210;-63
2022/08/27 00:52:29;;;;;;;37.80;24.87;;;18.80;99.90;;;;;;5031507;28;20183;-63
2022/08/27 00:55:01;;;;;;;29.03;22.47;;;18.80;99.90;;;;;;5032839;28;20667;-62
2022/08/27 00:57:27;;;;;;;32.10;20.67;;;18.80;99.90;;;;;;5075085;28;20264;-63
2022/08/27 00:59:53;;;;;;;24.13;20.00;;;18.80;99.90;;;;;;5075338;28;20269;-63
2022/08/27 01:02:19;;;;;;;24.77;17.63;;;18.80;99.90;;;;;;5056677;28;20214;-63
2022/08/27 01:05:01;;;;;;;19.97;15.47;;;18.80;99.90;;;;;;5056257;28;20555;-63
2022/08/27 01:07:29;;;;;;;23.37;13.80;;;18.80;99.90;;;;;;5055432;28;20535;-63
2022/08/27 01:09:59;;;;;;;12.90;11.60;;;18.70;99.90;;;;;;5061931;28;20198;-63
2022/08/27 01:12:24;;;;;;;13.27;11.87;;;18.60;99.90;;;;;;5075170;28;20456;-63
2022/08/27 01:14:50;;;;;;;12.30;10.87;;;18.50;99.90;;;;;;5068807;28;20198;-64
2022/08/27 01:17:16;;;;;;;12.70;9.93;;;18.40;99.90;;;;;;5055137;28;20205;-63
2022/08/27 01:19:49;;;;;;;11.10;10.10;;;18.40;99.90;;;;;;5056044;28;20249;-65
2022/08/27 01:22:36;;;;;;;11.63;9.70;;;18.40;99.90;;;;;;5055179;28;20264;-63
2022/08/27 01:25:07;;;;;;;11.20;10.10;;;18.40;99.90;;;;;;5060636;28;20301;-63
2022/08/27 01:27:33;;;;;;;14.60;9.40;;;18.40;99.90;;;;;;5074900;28;20174;-63
2022/08/27 01:29:59;;;;;;;13.10;11.90;;;18.40;99.90;;;;;;5055633;28;20644;-65
2022/08/27 01:32:31;;;;;;;13.90;10.93;;;18.30;99.90;;;;;;5054984;28;20581;-64
2022/08/27 01:34:58;;;;;;;13.00;9.43;;;18.40;99.90;;;;;;5072223;28;20174;-63
2022/08/27 01:37:25;;;;;;;9.87;8.73;;;18.40;99.90;;;;;;5074940;28;20240;-63
2022/08/27 01:39:52;;;;;;;8.93;8.23;;;18.40;99.90;;;;;;5056380;28;20700;-63
2022/08/27 01:42:24;;;;;;;9.43;7.97;;;18.50;99.90;;;;;;5054549;28;20215;-62
2022/08/27 01:44:51;;;;;;;9.87;9.00;;;18.50;99.90;;;;;;5069866;28;20170;-63
2022/08/27 01:47:19;;;;;;;9.90;9.13;;;18.60;99.90;;;;;;5074682;28;20236;-64
2022/08/27 01:49:45;;;;;;;10.70;8.93;;;18.60;99.90;;;;;;5059337;28;20640;-63
2022/08/27 01:52:13;;;;;;;14.67;10.40;;;18.60;99.90;;;;;;5054481;28;20262;-64
2022/08/27 01:54:39;;;;;;;14.43;9.57;;;18.60;99.90;;;;;;5067306;28;20612;-65
2022/08/27 01:57:05;;;;;;;10.73;9.83;;;18.60;99.90;;;;;;5074530;28;20549;-63
2022/08/27 01:59:32;;;;;;;11.40;10.33;;;18.50;99.90;;;;;;5062413;28;20210;-64
2022/08/27 02:02:01;;;;;;;12.50;11.33;;;18.50;99.90;;;;;;5053997;28;20207;-63
2022/08/27 02:04:27;;;;;;;11.43;10.53;;;18.50;99.90;;;;;;5063183;28;20272;-63
2022/08/27 02:06:53;;;;;;;11.40;10.10;;;18.50;99.90;;;;;;5062968;28;20647;-63
2022/08/27 02:09:19;;;;;;;11.57;10.40;;;18.60;99.90;;;;;;5054204;28;20187;-63
2022/08/27 02:11:44;;;;;;;12.87;9.57;;;18.50;99.90;;;;;;5057922;28;20182;-63
2022/08/27 02:14:10;;;;;;;11.03;9.83;;;18.60;99.90;;;;;;5062143;28;20178;-63
2022/08/27 02:16:36;;;;;;;15.23;10.10;;;18.50;99.90;;;;;;5054455;28;20289;-63
2022/08/27 02:19:02;;;;;;;13.07;11.47;;;18.50;99.90;;;;;;5058604;28;20615;-63
2022/08/27 02:21:28;;;;;;;20.63;10.40;;;18.50;99.90;;;;;;5074524;28;20178;-66
2022/08/27 02:23:54;;;;;;;15.37;11.23;;;18.50;99.90;;;;;;5069324;28;20233;-68
2022/08/27 02:26:20;;;;;;;16.13;13.30;;;18.50;99.90;;;;;;5054964;28;20171;-68
2022/08/27 02:28:46;;;;;;;14.10;11.13;;;18.50;99.90;;;;;;5055792;28;20187;-69
2022/08/27 02:31:12;;;;;;;16.57;14.97;;;18.40;99.90;;;;;;5074326;28;20177;-69
2022/08/27 02:33:38;;;;;;;17.90;15.17;;;18.50;99.90;;;;;;5073993;28;20174;-65
2022/08/27 02:36:04;;;;;;;17.00;12.97;;;18.50;99.90;;;;;;5054180;28;20270;-68
2022/08/27 02:38:29;;;;;;;20.63;14.27;;;18.60;99.90;;;;;;5054554;28;20207;-67
2022/08/27 02:40:55;;;;;;;18.53;12.10;;;18.60;99.90;;;;;;5071234;28;20545;-67
2022/08/27 02:43:20;;;;;;;14.17;12.57;;;18.50;99.90;;;;;;5074099;28;20675;-66
2022/08/27 02:45:47;;;;;;;13.23;11.87;;;18.50;99.90;;;;;;5057328;28;20190;-67
2022/08/27 02:48:13;;;;;;;16.03;11.33;;;18.50;99.90;;;;;;5053918;28;20617;-67
2022/08/27 02:50:38;;;;;;;13.73;10.97;;;18.60;99.90;;;;;;5067993;28;20217;-66
2022/08/27 02:53:05;;;;;;;13.77;12.47;;;18.50;99.90;;;;;;5068257;28;20256;-69
2022/08/27 02:55:31;;;;;;;15.30;10.40;;;18.60;99.90;;;;;;5052243;28;20186;-66
2022/08/27 02:57:57;;;;;;;14.47;9.00;;;18.60;99.90;;;;;;5057484;28;20174;-68
2022/08/27 03:00:24;;;;;;;17.03;9.40;;;18.60;99.90;;;;;;5069898;28;20316;-68
2022/08/27 03:02:50;;;;;;;14.43;10.17;;;18.50;99.90;;;;;;5053877;28;20248;-68
2022/08/27 03:05:17;;;;;;;11.17;9.97;;;18.50;99.90;;;;;;5054430;28;20182;-68
2022/08/27 03:07:43;;;;;;;15.37;10.87;;;18.50;99.90;;;;;;5073722;28;20174;-69
2022/08/27 03:10:12;;;;;;;18.47;10.87;;;18.50;99.90;;;;;;5073568;28;20174;-69
2022/08/27 03:12:38;;;;;;;15.47;10.73;;;18.40;99.90;;;;;;5073660;28;20566;-68
2022/08/27 03:15:05;;;;;;;18.03;11.37;;;18.50;99.90;;;;;;5073292;28;20182;-67
2022/08/27 03:20:15;;;;;;;17.80;12.47;;;18.40;99.90;;;;;;5053542;28;20717;-69
2022/08/27 03:22:41;;;;;;;18.17;13.00;;;18.50;99.90;;;;;;5072469;28;20201;-70
2022/08/27 03:25:07;;;;;;;16.63;12.53;;;18.40;99.90;;;;;;5073293;28;20178;-66
2022/08/27 03:27:33;;;;;;;17.83;12.97;;;18.40;99.90;;;;;;5055594;28;20193;-68
2022/08/27 03:30:04;;;;;;;19.57;13.60;;;18.40;99.90;;;;;;5053456;28;20695;-67
2022/08/27 03:32:30;;;;;;;12.33;10.83;;;18.40;99.90;;;;;;5068205;28;20190;-67
2022/08/27 03:34:57;;;;;;;19.67;12.57;;;18.40;99.90;;;;;;5073162;28;20182;-68
2022/08/27 03:37:23;;;;;;;14.77;12.10;;;18.40;99.90;;;;;;5058117;28;20214;-68
2022/08/27 03:39:49;;;;;;;16.63;13.30;;;18.40;99.90;;;;;;5051956;28;20292;-68
2022/08/27 03:42:15;;;;;;;17.63;12.33;;;18.40;99.90;;;;;;5064383;28;20229;-69
2022/08/27 03:44:41;;;;;;;18.33;12.77;;;18.40;99.90;;;;;;5072731;28;20537;-64
2022/08/27 03:47:06;;;;;;;17.17;12.87;;;18.40;99.90;;;;;;5060611;28;20256;-64
2022/08/27 03:49:32;;;;;;;14.47;11.80;;;18.40;99.90;;;;;;5052116;28;20612;-63
2022/08/27 03:51:58;;;;;;;18.73;11.10;;;18.40;99.90;;;;;;5061595;28;20525;-63
2022/08/27 03:54:24;;;;;;;24.80;14.10;;;18.50;99.90;;;;;;5070519;28;20273;-64
2022/08/27 03:56:50;;;;;;;25.20;16.10;;;18.50;99.90;;;;;;5063612;28;20214;-63
2022/08/27 03:59:15;;;;;;;24.23;14.20;;;18.60;99.90;;;;;;5052112;28;20256;-63
2022/08/27 04:01:43;;;;;;;24.83;16.20;;;18.60;99.90;;;;;;5058094;28;20638;-63
2022/08/27 04:04:08;;;;;;;23.20;15.37;;;18.50;99.90;;;;;;5071411;28;20166;-64
2022/08/27 04:06:35;;;;;;;21.83;15.90;;;18.60;99.90;;;;;;5054442;28;20227;-63
2022/08/27 04:09:01;;;;;;;23.07;17.17;;;18.50;99.90;;;;;;5051858;28;20609;-63
2022/08/27 04:11:28;;;;;;;22.77;16.10;;;18.60;99.90;;;;;;5067226;28;20189;-64
2022/08/27 04:13:54;;;;;;;26.27;17.40;;;18.50;99.90;;;;;;5071439;28;20635;-63
2022/08/27 04:16:20;;;;;;;24.50;15.83;;;18.50;99.90;;;;;;5057527;28;20206;-64
2022/08/27 04:18:46;;;;;;;25.37;15.93;;;18.60;99.90;;;;;;5051648;28;20222;-64
2022/08/27 04:21:13;;;;;;;30.43;18.73;;;18.50;99.90;;;;;;5064024;28;20534;-64
2022/08/27 04:23:41;;;;;;;25.67;16.90;;;18.60;99.90;;;;;;5071493;28;20206;-64
2022/08/27 04:26:09;;;;;;;27.20;18.90;;;18.60;99.90;;;;;;5058808;28;20286;-63
2022/08/27 04:28:34;;;;;;;29.07;19.20;;;18.60;99.90;;;;;;5050269;28;20265;-64
2022/08/27 04:31:02;;;;;;;30.37;19.83;;;18.60;99.90;;;;;;5069969;28;20174;-64
2022/08/27 04:33:28;;;;;;;28.13;20.30;;;18.60;99.90;;;;;;5071366;28;20174;-64
2022/08/27 04:36:03;;;;;;;26.57;20.30;;;18.70;99.90;;;;;;5052092;28;20193;-64
2022/08/27 04:38:29;;;;;;;27.80;18.23;;;18.60;99.90;;;;;;5051727;28;20553;-64
2022/08/27 04:43:38;;;;;;;29.17;19.60;;;18.60;99.90;;;;;;5071338;28;20220;-63
2022/08/27 04:46:04;;;;;;;23.80;18.23;;;18.60;99.90;;;;;;5051578;28;20205;-64
2022/08/27 04:48:30;;;;;;;26.70;17.90;;;18.60;99.90;;;;;;5051908;28;20268;-65
2022/08/27 04:50:56;;;;;;;24.03;17.97;;;18.60;99.90;;;;;;5069175;28;20178;-64
2022/08/27 04:53:22;;;;;;;30.87;18.80;;;18.50;99.90;;;;;;5071401;28;20679;-64
2022/08/27 04:55:50;;;;;;;25.50;18.70;;;18.50;99.90;;;;;;5054905;28;20197;-64
2022/08/27 04:58:17;;;;;;;21.77;17.63;;;18.50;99.90;;;;;;5051283;28;20739;-64
2022/08/27 05:00:45;;;;;;;21.27;16.77;;;18.50;99.90;;;;;;5066064;28;20343;-64
2022/08/27 05:03:11;;;;;;;21.17;16.23;;;18.50;99.90;;;;;;5071304;28;20205;-64
2022/08/27 05:05:37;;;;;;;23.27;16.07;;;18.60;99.90;;;;;;5057395;28;20182;-64
2022/08/27 05:08:05;;;;;;;19.57;14.57;;;18.60;99.90;;;;;;5051304;28;20570;-64
2022/08/27 05:10:38;;;;;;;17.80;15.13;;;18.50;99.90;;;;;;5063130;28;20186;-64
2022/08/27 05:13:03;;;;;;;17.23;14.03;;;18.50;99.90;;;;;;5071481;28;20247;-64
2022/08/27 05:15:30;;;;;;;17.83;13.00;;;18.50;99.90;;;;;;5059479;28;20269;-64
2022/08/27 05:17:59;;;;;;;18.43;14.30;;;18.40;99.90;;;;;;5051176;28;20253;-63
2022/08/27 05:20:25;;;;;;;20.73;15.13;;;18.40;99.90;;;;;;5060926;28;20174;-64
2022/08/27 05:22:51;;;;;;;17.63;15.53;;;18.40;99.90;;;;;;5071149;28;20209;-64
2022/08/27 05:25:17;;;;;;;15.83;13.77;;;18.40;99.90;;;;;;5069307;28;20222;-64
2022/08/27 05:27:43;;;;;;;14.67;13.17;;;18.40;99.90;;;;;;5071619;28;20206;-64
2022/08/27 05:30:09;;;;;;;22.97;13.23;;;18.40;99.90;;;;;;5064323;28;20229;-64
2022/08/27 05:32:35;;;;;;;16.63;13.30;;;18.30;99.90;;;;;;5051183;28;20629;-64
2022/08/27 05:35:00;;;;;;;16.40;14.67;;;18.30;99.90;;;;;;5055052;28;20181;-64
2022/08/27 05:37:26;;;;;;;18.83;13.87;;;18.30;99.90;;;;;;5071214;28;20181;-63
2022/08/27 05:39:52;;;;;;;16.17;13.83;;;18.30;99.90;;;;;;5069261;28;20198;-64
2022/08/27 05:42:18;;;;;;;14.77;13.33;;;18.30;99.90;;;;;;5074668;28;20671;-64
2022/08/27 05:44:44;;;;;;;16.17;13.13;;;18.20;99.90;;;;;;5073058;28;20189;-64
2022/08/27 05:47:09;;;;;;;14.77;12.73;;;18.20;99.90;;;;;;5054736;28;20171;-64
2022/08/27 05:49:36;;;;;;;18.80;13.77;;;18.10;99.90;;;;;;5054594;28;20234;-64
2022/08/27 05:52:02;;;;;;;14.37;12.87;;;18.10;99.90;;;;;;5059135;28;20182;-64
2022/08/27 05:54:27;;;;;;;17.90;13.27;;;18.00;99.90;;;;;;5052852;28;20185;-65
2022/08/27 05:56:53;;;;;;;14.70;13.03;;;18.00;99.90;;;;;;5053923;28;21382;-64
2022/08/27 06:02:04;;;;;;;17.70;14.17;;;17.80;99.90;;;;;;5074316;28;20571;-64
2022/08/27 06:04:30;;;;;;;16.63;14.23;;;17.70;99.90;;;;;;5056053;28;20178;-64
2022/08/27 06:06:56;;;;;;;16.07;13.37;;;17.70;99.90;;;;;;5054214;28;20185;-64
2022/08/27 06:09:25;;;;;;;16.93;15.00;;;17.70;99.90;;;;;;5070006;28;20611;-65
2022/08/27 06:11:55;;;;;;;18.60;12.97;;;17.50;99.90;;;;;;5074458;28;20307;-64
2022/08/27 06:14:21;;;;;;;19.33;13.93;;;17.40;99.90;;;;;;5068372;28;20190;-64
2022/08/27 06:16:47;;;;;;;18.03;14.57;;;17.40;99.90;;;;;;5053989;28;20230;-64
2022/08/27 06:19:13;;;;;;;19.27;15.37;;;17.40;99.90;;;;;;5054113;28;20207;-64
2022/08/27 06:21:40;;;;;;;19.43;14.57;;;17.40;99.90;;;;;;5054296;28;20256;-65
2022/08/27 06:24:07;;;;;;;20.83;15.00;;;17.30;99.90;;;;;;5066341;28;20261;-64
2022/08/27 06:26:33;;;;;;;17.47;13.00;;;17.30;99.90;;;;;;5073863;28;20178;-64
2022/08/27 06:29:10;;;;;;;14.83;12.33;;;17.20;99.90;;;;;;5061204;28;20563;-65
2022/08/27 06:31:36;;;;;;;16.07;13.83;;;17.10;99.90;;;;;;5053860;28;20174;-65
2022/08/27 06:34:05;;;;;;;14.93;11.93;;;17.10;99.90;;;;;;5064803;28;20193;-64
2022/08/27 06:36:32;;;;;;;16.17;13.17;;;17.10;99.90;;;;;;5073657;28;20198;-65
2022/08/27 06:38:58;;;;;;;16.03;13.17;;;17.00;99.90;;;;;;5062416;28;20726;-65
2022/08/27 06:41:26;;;;;;;14.37;12.97;;;17.00;99.90;;;;;;5053890;28;20174;-65
2022/08/27 06:43:53;;;;;;;18.53;13.43;;;17.10;99.90;;;;;;5061840;28;20193;-64
2022/08/27 06:46:22;;;;;;;14.30;11.77;;;17.00;99.90;;;;;;5073255;28;20176;-65
2022/08/27 06:48:56;;;;;;;13.97;10.53;;;17.00;99.90;;;;;;5064842;28;20214;-64
2022/08/27 06:51:28;;;;;;;15.67;11.23;;;17.00;99.90;;;;;;5053484;28;20183;-65
2022/08/27 06:53:56;;;;;;;14.87;10.07;;;17.00;99.90;;;;;;5060083;28;20641;-65
2022/08/27 06:56:22;;;;;;;13.77;10.53;;;16.90;99.90;;;;;;5064263;28;20308;-64
2022/08/27 06:58:55;;;;;;;16.80;11.07;;;16.90;99.90;;;;;;5059415;28;20204;-65
2022/08/27 07:01:26;;;;;;;14.20;10.57;;;17.00;99.90;;;;;;5073159;28;20214;-64
2022/08/27 07:03:57;;;;;;;14.27;11.03;;;16.90;99.90;;;;;;5066496;28;20240;-64
2022/08/27 07:06:24;;;;;;;14.50;11.10;;;16.90;99.90;;;;;;5053210;28;20167;-65
2022/08/27 07:08:50;;;;;;;19.40;12.10;;;16.90;99.90;;;;;;5058191;28;20206;-64
2022/08/27 07:11:16;;;;;;;17.80;11.33;;;16.90;99.90;;;;;;5073387;28;20635;-65
2022/08/27 07:13:42;;;;;;;20.13;11.77;;;17.00;99.90;;;;;;5068810;28;20241;-65
2022/08/27 07:16:10;;;;;;;12.60;11.30;;;17.00;99.90;;;;;;5052691;28;20191;-65
2022/08/27 07:18:37;;;;;;;14.03;12.27;;;17.00;99.90;;;;;;5054566;28;20202;-65
2022/08/27 07:21:04;;;;;;;22.83;11.97;;;17.10;99.90;;;;;;5072450;28;20174;-64
2022/08/27 07:23:34;;;;;;;14.33;12.63;;;17.10;99.90;;;;;;5063643;28;20213;-64
2022/08/27 07:26:00;;;;;;;19.37;12.90;;;17.00;99.90;;;;;;5052457;28;20186;-65
2022/08/27 07:28:26;;;;;;;12.57;11.27;;;17.00;99.90;;;;;;5057631;28;20683;-64
2022/08/27 07:30:52;;;;;;;15.40;11.70;;;17.00;99.90;;;;;;5070787;28;20170;-65
2022/08/27 07:33:18;;;;;;;12.33;11.13;;;17.10;99.90;;;;;;5052517;28;20667;-64
2022/08/27 07:35:45;;;;;;;17.03;12.50;;;17.10;99.90;;;;;;5051385;28;20291;-64
2022/08/27 07:38:11;;;;;;;13.30;11.13;;;17.10;99.90;;;;;;5052950;28;20285;-65
2022/08/27 07:40:37;;;;;;;14.53;11.03;;;17.10;99.90;;;;;;5052172;28;20305;-64
2022/08/27 07:45:54;;;;;;;16.33;11.97;;;17.10;99.90;;;;;;5072517;28;20706;-65
2022/08/27 07:48:24;;;;;;;13.73;12.00;;;17.10;99.90;;;;;;5052149;28;20211;-65
2022/08/27 07:50:51;;;;;;;16.00;12.37;;;17.10;99.90;;;;;;5052036;28;20183;-65
2022/08/27 07:53:18;;;;;;;15.20;12.10;;;17.20;99.90;;;;;;5053281;28;20666;-65
2022/08/27 07:55:44;;;;;;;13.37;11.50;;;17.20;99.90;;;;;;5051679;28;20192;-64
2022/08/27 07:58:10;;;;;;;12.70;11.40;;;17.20;99.90;;;;;;5068656;28;20570;-65
2022/08/27 08:00:36;;;;;;;19.13;13.30;;;17.30;99.90;;;;;;5071965;28;20292;-65
2022/08/27 08:03:02;;;;;;;19.57;13.20;;;17.40;99.90;;;;;;5050744;28;20229;-65
2022/08/27 08:05:28;;;;;;;17.07;12.87;;;17.40;99.90;;;;;;5050737;28;20175;-64
2022/08/27 08:07:54;;;;;;;16.17;10.77;;;17.50;99.90;;;;;;5069028;28;20684;-65
2022/08/27 08:10:22;;;;;;;13.23;11.70;;;17.60;99.90;;;;;;5071874;28;20170;-64
2022/08/27 08:12:48;;;;;;;13.67;10.77;;;17.70;99.90;;;;;;5055288;28;20274;-65
2022/08/27 08:15:16;;;;;;;14.63;11.73;;;17.70;99.90;;;;;;5051437;28;20178;-65
2022/08/27 08:17:41;;;;;;;13.43;11.13;;;17.70;99.90;;;;;;5056041;28;20182;-65
2022/08/27 08:20:10;;;;;;;18.97;12.97;;;17.70;99.90;;;;;;5051531;28;20185;-64
2022/08/27 08:22:35;;;;;;;14.33;12.23;;;17.80;99.90;;;;;;5063773;28;20275;-64
2022/08/27 08:25:02;;;;;;;16.13;12.30;;;17.80;99.90;;;;;;5059886;28;20644;-65
2022/08/27 08:27:27;;;;;;;16.53;13.10;;;18.00;99.90;;;;;;5051638;28;20217;-66
2022/08/27 08:29:53;;;;;;;18.10;12.67;;;18.10;99.90;;;;;;5060131;28;20198;-64
2022/08/27 08:32:20;;;;;;;15.27;13.27;;;18.20;99.90;;;;;;5071528;28;20178;-64
2022/08/27 08:34:46;;;;;;;18.43;13.90;;;18.30;99.90;;;;;;5063564;28;20548;-64
2022/08/27 08:37:13;;;;;;;13.73;11.30;;;18.40;99.90;;;;;;5050138;28;20203;-64
2022/08/27 08:39:39;;;;;;;14.57;12.40;;;18.50;99.90;;;;;;5052433;28;20224;-64
2022/08/27 08:42:07;;;;;;;12.97;11.67;;;18.60;99.90;;;;;;5051145;28;20198;-64
2022/08/27 08:44:47;;;;;;;13.13;11.07;;;18.90;99.90;;;;;;5054899;28;20220;-65
2022/08/27 08:47:22;;;;;;;12.20;11.00;;;19.00;99.90;;;;;;5070826;28;20165;-63
2022/08/27 08:49:47;;;;;;;12.90;11.60;;;18.90;99.90;;;;;;5069408;28;20207;-64
2022/08/27 08:52:13;;;;;;;12.57;9.90;;;19.00;99.90;;;;;;5062379;28;20663;-64
2022/08/27 08:54:39;;;;;;;11.63;10.13;;;19.10;99.90;;;;;;5050949;28;20178;-64
2022/08/27 08:57:12;;;;;;;10.57;8.50;;;19.20;99.90;;;;;;5050815;28;20183;-64
2022/08/27 08:59:44;;;;;;;12.33;9.13;;;19.20;99.90;;;;;;5051250;28;20194;-64
2022/08/27 09:02:13;;;;;;;14.97;9.67;;;19.10;99.90;;;;;;5055751;28;20205;-64
2022/08/27 09:04:40;;;;;;;13.00;11.77;;;19.20;99.90;;;;;;5070865;28;20170;-64
2022/08/27 09:07:35;;;;;;;10.70;9.60;;;19.50;99.90;;;;;;5069477;28;20644;-64
2022/08/27 09:10:16;;;;;;;12.70;9.97;;;19.70;99.90;;;;;;5070935;28;20225;-65
2022/08/27 09:12:42;;;;;;;12.13;8.43;;;19.80;99.90;;;;;;5062428;28;20187;-64
2022/08/27 09:15:18;;;;;;;15.23;9.90;;;19.80;99.90;;;;;;5049767;28;20182;-63
2022/08/27 09:17:46;;;;;;;11.37;8.20;;;19.90;99.90;;;;;;5062839;28;20201;-64
2022/08/27 09:20:13;;;;;;;12.13;9.43;;;20.10;99.90;;;;;;5074914;28;20206;-64
2022/08/27 09:23:15;;;;;;;10.67;9.03;;;20.20;99.90;;;;;;5067446;28;20297;-64
2022/08/27 09:25:42;;;;;;;8.37;7.57;;;20.30;99.90;;;;;;5054725;28;20170;-65
2022/08/27 09:31:13;;;;;;;13.50;12.30;;;20.20;99.90;;;;;;5055038;28;20229;-65
2022/08/27 09:33:39;;;;;;;14.83;11.63;;;20.30;99.90;;;;;;5068367;28;20204;-64
2022/08/27 09:36:10;;;;;;;13.50;12.20;;;20.40;99.90;;;;;;5074628;28;20644;-65
2022/08/27 09:38:38;;;;;;;9.37;8.40;;;20.50;99.90;;;;;;5061398;28;20221;-65
2022/08/27 09:41:16;;;;;;;11.23;9.67;;;20.50;99.90;;;;;;5054591;28;20676;-64
2022/08/27 09:43:42;;;;;;;10.97;8.33;;;20.60;99.90;;;;;;5067551;28;20206;-65
2022/08/27 09:46:20;;;;;;;9.37;8.10;;;20.70;99.90;;;;;;5074541;28;20274;-65
2022/08/27 09:48:46;;;;;;;12.13;11.13;;;20.80;99.90;;;;;;5060414;28;20217;-65
2022/08/27 09:51:18;;;;;;;14.40;13.40;;;20.90;99.90;;;;;;5054559;28;20246;-64
2022/08/27 09:54:00;;;;;;;8.87;7.97;;;21.10;99.90;;;;;;5066371;28;20211;-64
2022/08/27 09:56:35;;;;;;;10.13;7.90;;;21.30;99.90;;;;;;5074378;28;20174;-65
2022/08/27 09:59:09;;;;;;;9.20;8.10;;;21.40;99.90;;;;;;5059691;28;20210;-64
2022/08/27 10:01:48;;;;;;;10.13;7.00;;;21.30;99.90;;;;;;5064069;28;20179;-64
2022/08/27 10:04:16;;;;;;;7.50;6.67;;;21.30;99.90;;;;;;5073217;28;20221;-64
2022/08/27 10:06:50;;;;;;;7.87;6.63;;;21.30;99.90;;;;;;5063013;28;20324;-65
2022/08/27 10:09:29;;;;;;;7.97;6.60;;;21.40;99.90;;;;;;5063853;28;20236;-64
2022/08/27 10:12:06;;;;;;;7.23;6.53;;;21.50;99.90;;;;;;5044320;28;20201;-65
2022/08/27 10:14:56;;;;;;;8.17;7.47;;;21.50;99.90;;;;;;5068476;28;20698;-64
2022/08/27 10:17:34;;;;;;;8.27;7.47;;;21.50;99.90;;;;;;5062321;28;20198;-64
2022/08/27 10:20:41;;;;;;;9.13;8.17;;;21.60;99.90;;;;;;5034029;28;20199;-65
2022/08/27 10:23:09;;;;;;;11.30;10.30;;;21.70;99.90;;;;;;5003016;28;20314;-65
2022/08/27 10:25:53;;;;;;;10.83;8.83;;;21.80;99.90;;;;;;5051732;28;20190;-65
2022/08/27 10:28:27;;;;;;;9.50;7.67;;;21.80;99.90;;;;;;5052775;28;20676;-64
2022/08/27 10:31:12;;;;;;;9.40;8.67;;;21.80;99.90;;;;;;5033614;28;20665;-64
2022/08/27 10:33:45;;;;;;;9.37;7.87;;;21.80;99.90;;;;;;5036655;28;20179;-64
2022/08/27 10:37:07;;;;;;;7.47;6.87;;;21.80;99.90;;;;;;5053504;28;20625;-65
2022/08/27 10:39:54;;;;;;;9.23;8.40;;;21.90;99.90;;;;;;5011516;28;20228;-65
2022/08/27 10:42:34;;;;;;;8.57;7.87;;;21.90;99.90;;;;;;5013516;28;20212;-65
2022/08/27 10:45:10;;;;;;;7.43;6.67;;;21.90;99.90;;;;;;5061756;28;20190;-65
2022/08/27 10:47:39;;;;;;;7.07;6.40;;;22.10;99.90;;;;;;5068901;28;20171;-65
2022/08/27 10:52:36;;;;;;;8.07;7.00;;;22.10;99.90;;;;;;5051444;28;20301;-66
2022/08/27 10:55:15;;;;;;;7.15;6.45;;;22.20;99.90;;;;;;5053020;28;20167;-66
2022/08/27 10:58:02;;;;;;;6.63;6.03;;;22.40;99.90;;;;;;5053250;28;20175;-65
2022/08/27 11:01:03;;;;;;;7.20;6.57;;;22.50;99.90;;;;;;5033085;28;20215;-67
2022/08/27 11:03:50;;;;;;;7.70;6.82;;;22.40;99.90;;;;;;5028598;28;20313;-65
2022/08/27 11:06:37;;;;;;;7.97;6.03;;;22.60;99.90;;;;;;5033068;28;20178;-66
2022/08/27 11:09:10;;;;;;;6.20;5.60;;;22.50;99.90;;;;;;5032560;28;20249;-65
2022/08/27 11:11:40;;;;;;;6.40;5.50;;;22.40;99.90;;;;;;5033164;28;20167;-66
2022/08/27 11:14:23;;;;;;;8.05;6.07;;;22.50;99.90;;;;;;5032134;28;20266;-67
2022/08/27 11:16:54;;;;;;;5.80;5.30;;;22.80;99.90;;;;;;5032463;28;20205;-66
2022/08/27 11:19:29;;;;;;;7.55;6.68;;;22.90;99.90;;;;;;5032766;28;20195;-65
2022/08/27 11:22:25;;;;;;;6.38;5.88;;;22.90;99.90;;;;;;5032668;28;20195;-66
2022/08/27 11:24:55;;;;;;;6.43;5.82;;;22.80;99.90;;;;;;5017831;28;20202;-66
2022/08/27 11:27:25;;;;;;;6.70;6.10;;;22.70;99.90;;;;;;5032793;28;20195;-64
2022/08/27 11:29:57;;;;;;;8.80;6.80;;;22.60;99.90;;;;;;5032700;28;20633;-65
2022/08/27 11:32:35;;;;;;;7.43;5.93;;;22.40;99.90;;;;;;5031860;28;20661;-66
2022/08/27 11:35:19;;;;;;;11.37;6.80;;;22.40;99.90;;;;;;5031718;28;20211;-66
2022/08/27 11:37:53;;;;;;;9.63;7.57;;;22.50;99.90;;;;;;5032037;28;20171;-67
2022/08/27 11:40:28;;;;;;;7.07;6.50;;;22.70;99.90;;;;;;5032105;28;20203;-67
2022/08/27 11:42:59;;;;;;;6.40;5.90;;;22.90;99.90;;;;;;5032422;28;20195;-67
2022/08/27 11:45:37;;;;;;;6.80;6.10;;;23.10;99.90;;;;;;5031947;28;20172;-67
2022/08/27 11:48:24;;;;;;;8.35;6.38;;;23.20;99.90;;;;;;5032119;28;20542;-67
2022/08/27 11:51:11;;;;;;;10.10;6.03;;;23.10;99.90;;;;;;5031868;28;20182;-67
2022/08/27 11:53:55;;;;;;;7.57;6.15;;;23.00;99.90;;;;;;5032072;28;20652;-67
2022/08/27 11:56:29;;;;;;;8.20;7.40;;;23.10;99.90;;;;;;5032572;28;20202;-66
2022/08/27 11:59:07;;;;;;;12.18;7.93;;;23.10;99.90;;;;;;5032089;28;20191;-67
2022/08/27 12:01:33;;;;;;;8.32;6.75;;;23.20;99.90;;;;;;5031337;28;20179;-66
2022/08/27 12:04:05;;;;;;;7.07;6.28;;;23.20;99.90;;;;;;5031303;28;20258;-65
2022/08/27 12:06:41;;;;;;;7.80;6.32;;;23.30;99.90;;;;;;5030931;28;20179;-66
2022/08/27 12:09:22;;;;;;;8.68;6.53;;;23.40;99.90;;;;;;5031310;28;20253;-66
2022/08/27 12:11:56;;;;;;;7.68;5.82;;;23.70;99.90;;;;;;5031702;28;20190;-66
2022/08/27 12:14:48;;;;;;;7.93;6.32;;;24.10;99.90;;;;;;5030992;28;20708;-66
2022/08/27 12:17:29;;;;;;;7.05;6.28;;;24.30;99.90;;;;;;5031421;28;20261;-66
2022/08/27 12:20:00;;;;;;;6.32;5.72;;;24.10;99.90;;;;;;5031532;28;20202;-65
2022/08/27 12:26:24;;;;;;;7.40;6.50;;;23.60;99.90;;;;;;4970344;28;20185;-65
2022/08/27 12:29:09;;;;;;;6.32;5.72;;;23.90;99.90;;;;;;4970218;28;20204;-65
2022/08/27 12:31:36;;;;;;;6.55;5.63;;;24.10;99.90;;;;;;5020665;28;20192;-67
2022/08/27 12:34:02;;;;;;;6.22;5.63;;;24.30;99.90;;;;;;5030822;28;20596;-66
2022/08/27 12:36:32;;;;;;;7.50;5.90;;;24.30;99.90;;;;;;5030704;28;20184;-66
2022/08/27 12:38:58;;;;;;;6.82;6.03;;;24.40;99.90;;;;;;5030838;28;20199;-66
2022/08/27 12:41:28;;;;;;;8.07;6.47;;;24.30;99.90;;;;;;5031401;28;21030;-66
2022/08/27 12:44:06;;;;;;;6.40;5.63;;;24.30;99.90;;;;;;5031065;28;20199;-65
2022/08/27 12:46:35;;;;;;;9.13;6.18;;;24.40;99.90;;;;;;5031213;28;20574;-64
2022/08/27 12:49:03;;;;;;;7.07;6.13;;;24.50;99.90;;;;;;5031347;28;21005;-67
2022/08/27 12:51:32;;;;;;;7.10;6.40;;;24.40;99.90;;;;;;5036551;28;20191;-66
2022/08/27 12:54:53;;;;;;;6.30;5.70;;;24.40;99.90;;;;;;5037642;28;20171;-67
2022/08/27 12:58:01;;;;;;;5.95;5.32;;;24.50;99.90;;;;;;4993560;28;20210;-67
2022/08/27 13:00:34;;;;;;;6.00;5.40;;;24.40;99.90;;;;;;4976522;28;20192;-65
2022/08/27 13:03:21;;;;;;;6.45;5.85;;;24.40;99.90;;;;;;5030801;28;20234;-65
2022/08/27 13:05:49;;;;;;;6.35;5.72;;;24.40;99.90;;;;;;5037812;28;20175;-66
2022/08/27 13:08:36;;;;;;;5.65;5.15;;;24.30;99.90;;;;;;5037961;28;20175;-66